sensor_id;sensor_type;location;lat;lon;timestamp;temperature;humidity
28763;DHT22;15918;51.270;6.522;2023-04-07T00:00:20;11.80;69.50
28763;DHT22;15918;51.270;6.522;2023-04-07T00:02:45;11.90;69.60
28763;DHT22;15918;51.270;6.522;2023-04-07T00:05:11;11.80;69.70
28763;DHT22;15918;51.270;6.522;2023-04-07T00:07:37;11.90;70.60
28763;DHT22;15918;51.270;6.522;2023-04-07T00:10:03;11.90;70.00
28763;DHT22;15918;51.270;6.522;2023-04-07T00:12:28;11.90;70.20
28763;DHT22;15918;51.270;6.522;2023-04-07T00:14:54;11.90;70.30
28763;DHT22;15918;51.270;6.522;2023-04-07T00:17:20;11.90;70.40
28763;DHT22;15918;51.270;6.522;2023-04-07T00:19:45;11.80;70.50
28763;DHT22;15918;51.270;6.522;2023-04-07T00:22:11;11.90;70.60
28763;DHT22;15918;51.270;6.522;2023-04-07T00:24:36;11.90;70.80
28763;DHT22;15918;51.270;6.522;2023-04-07T00:27:02;11.80;70.90
28763;DHT22;15918;51.270;6.522;2023-04-07T00:29:28;11.90;70.80
28763;DHT22;15918;51.270;6.522;2023-04-07T00:31:53;11.80;70.70
28763;DHT22;15918;51.270;6.522;2023-04-07T00:34:19;11.80;70.90
28763;DHT22;15918;51.270;6.522;2023-04-07T00:36:44;11.90;71.00
28763;DHT22;15918;51.270;6.522;2023-04-07T00:39:19;11.80;70.90
28763;DHT22;15918;51.270;6.522;2023-04-07T00:41:45;11.90;71.00
28763;DHT22;15918;51.270;6.522;2023-04-07T00:44:11;11.90;71.00
28763;DHT22;15918;51.270;6.522;2023-04-07T00:46:37;11.80;71.20
28763;DHT22;15918;51.270;6.522;2023-04-07T00:49:02;11.90;71.40
28763;DHT22;15918;51.270;6.522;2023-04-07T00:51:28;11.90;71.50
28763;DHT22;15918;51.270;6.522;2023-04-07T00:53:54;11.80;71.60
28763;DHT22;15918;51.270;6.522;2023-04-07T00:56:20;11.80;71.70
28763;DHT22;15918;51.270;6.522;2023-04-07T00:58:45;11.80;71.70
28763;DHT22;15918;51.270;6.522;2023-04-07T01:01:15;11.90;71.60
28763;DHT22;15918;51.270;6.522;2023-04-07T01:04:06;11.90;71.80
28763;DHT22;15918;51.270;6.522;2023-04-07T01:06:37;11.90;71.80
28763;DHT22;15918;51.270;6.522;2023-04-07T01:09:09;11.90;71.90
28763;DHT22;15918;51.270;6.522;2023-04-07T01:12:06;11.90;71.90
28763;DHT22;15918;51.270;6.522;2023-04-07T01:14:41;11.90;71.80
28763;DHT22;15918;51.270;6.522;2023-04-07T01:17:09;11.90;71.80
28763;DHT22;15918;51.270;6.522;2023-04-07T01:19:42;11.90;71.80
28763;DHT22;15918;51.270;6.522;2023-04-07T01:22:20;11.90;71.80
28763;DHT22;15918;51.270;6.522;2023-04-07T01:30:31;11.80;72.10
28763;DHT22;15918;51.270;6.522;2023-04-07T01:32:58;11.80;72.10
28763;DHT22;15918;51.270;6.522;2023-04-07T01:35:26;11.80;72.20
28763;DHT22;15918;51.270;6.522;2023-04-07T01:37:54;11.90;72.40
28763;DHT22;15918;51.270;6.522;2023-04-07T01:40:20;11.90;72.30
28763;DHT22;15918;51.270;6.522;2023-04-07T01:42:47;11.90;72.20
28763;DHT22;15918;51.270;6.522;2023-04-07T01:45:15;11.90;72.10
28763;DHT22;15918;51.270;6.522;2023-04-07T01:47:41;11.90;72.00
28763;DHT22;15918;51.270;6.522;2023-04-07T01:50:10;11.90;72.00
28763;DHT22;15918;51.270;6.522;2023-04-07T01:52:37;11.90;72.20
28763;DHT22;15918;51.270;6.522;2023-04-07T01:55:03;11.90;72.20
28763;DHT22;15918;51.270;6.522;2023-04-07T01:57:29;11.90;72.20
28763;DHT22;15918;51.270;6.522;2023-04-07T01:59:55;11.90;72.30
28763;DHT22;15918;51.270;6.522;2023-04-07T02:02:21;11.90;72.40
28763;DHT22;15918;51.270;6.522;2023-04-07T02:07:20;11.90;72.40
28763;DHT22;15918;51.270;6.522;2023-04-07T02:09:47;11.90;72.30
28763;DHT22;15918;51.270;6.522;2023-04-07T02:12:14;11.90;72.20
28763;DHT22;15918;51.270;6.522;2023-04-07T02:14:42;11.90;72.00
28763;DHT22;15918;51.270;6.522;2023-04-07T02:17:08;11.90;72.80
28763;DHT22;15918;51.270;6.522;2023-04-07T02:19:35;11.90;71.80
28763;DHT22;15918;51.270;6.522;2023-04-07T02:22:04;11.90;71.60
28763;DHT22;15918;51.270;6.522;2023-04-07T02:24:31;11.90;71.60
28763;DHT22;15918;51.270;6.522;2023-04-07T02:26:57;11.90;71.70
28763;DHT22;15918;51.270;6.522;2023-04-07T02:29:22;11.90;71.70
28763;DHT22;15918;51.270;6.522;2023-04-07T02:31:48;11.90;71.40
28763;DHT22;15918;51.270;6.522;2023-04-07T02:34:14;11.90;71.50
28763;DHT22;15918;51.270;6.522;2023-04-07T02:36:39;11.90;71.50
28763;DHT22;15918;51.270;6.522;2023-04-07T02:39:05;11.90;71.40
28763;DHT22;15918;51.270;6.522;2023-04-07T02:41:31;11.90;71.40
28763;DHT22;15918;51.270;6.522;2023-04-07T02:43:56;11.90;71.40
28763;DHT22;15918;51.270;6.522;2023-04-07T02:46:22;11.90;71.40
28763;DHT22;15918;51.270;6.522;2023-04-07T02:48:47;11.90;71.30
28763;DHT22;15918;51.270;6.522;2023-04-07T02:51:13;11.90;71.30
28763;DHT22;15918;51.270;6.522;2023-04-07T02:53:38;11.90;71.30
28763;DHT22;15918;51.270;6.522;2023-04-07T02:56:04;11.90;71.20
28763;DHT22;15918;51.270;6.522;2023-04-07T02:58:30;11.90;71.10
28763;DHT22;15918;51.270;6.522;2023-04-07T03:00:55;11.90;71.00
28763;DHT22;15918;51.270;6.522;2023-04-07T03:03:21;11.90;71.00
28763;DHT22;15918;51.270;6.522;2023-04-07T03:05:46;11.90;71.00
28763;DHT22;15918;51.270;6.522;2023-04-07T03:08:12;11.90;70.90
28763;DHT22;15918;51.270;6.522;2023-04-07T03:10:38;11.90;70.90
28763;DHT22;15918;51.270;6.522;2023-04-07T03:13:03;11.90;71.00
28763;DHT22;15918;51.270;6.522;2023-04-07T03:15:29;11.90;71.10
28763;DHT22;15918;51.270;6.522;2023-04-07T03:17:54;12.00;71.20
28763;DHT22;15918;51.270;6.522;2023-04-07T03:20:20;11.90;71.10
28763;DHT22;15918;51.270;6.522;2023-04-07T03:22:46;11.90;71.00
28763;DHT22;15918;51.270;6.522;2023-04-07T03:25:11;11.90;71.00
28763;DHT22;15918;51.270;6.522;2023-04-07T03:27:37;12.00;71.00
28763;DHT22;15918;51.270;6.522;2023-04-07T03:30:03;11.90;70.90
28763;DHT22;15918;51.270;6.522;2023-04-07T03:32:29;11.90;70.80
28763;DHT22;15918;51.270;6.522;2023-04-07T03:34:54;11.90;70.80
28763;DHT22;15918;51.270;6.522;2023-04-07T03:37:20;11.90;70.80
28763;DHT22;15918;51.270;6.522;2023-04-07T03:39:46;11.90;70.90
28763;DHT22;15918;51.270;6.522;2023-04-07T03:42:12;11.90;70.90
28763;DHT22;15918;51.270;6.522;2023-04-07T03:44:37;11.90;70.80
28763;DHT22;15918;51.270;6.522;2023-04-07T03:47:03;11.90;70.80
28763;DHT22;15918;51.270;6.522;2023-04-07T03:49:28;11.90;70.90
28763;DHT22;15918;51.270;6.522;2023-04-07T03:51:55;11.90;71.00
28763;DHT22;15918;51.270;6.522;2023-04-07T03:54:21;11.90;71.00
28763;DHT22;15918;51.270;6.522;2023-04-07T03:56:47;11.90;71.00
28763;DHT22;15918;51.270;6.522;2023-04-07T03:59:13;11.90;71.00
28763;DHT22;15918;51.270;6.522;2023-04-07T04:01:38;11.90;71.00
28763;DHT22;15918;51.270;6.522;2023-04-07T04:04:04;11.90;71.00
28763;DHT22;15918;51.270;6.522;2023-04-07T04:06:30;11.90;71.00
28763;DHT22;15918;51.270;6.522;2023-04-07T04:08:56;11.90;71.00
28763;DHT22;15918;51.270;6.522;2023-04-07T04:11:22;11.90;71.00
28763;DHT22;15918;51.270;6.522;2023-04-07T04:13:47;11.90;71.00
28763;DHT22;15918;51.270;6.522;2023-04-07T04:16:13;11.90;71.00
28763;DHT22;15918;51.270;6.522;2023-04-07T04:18:39;12.00;71.10
28763;DHT22;15918;51.270;6.522;2023-04-07T04:21:05;11.90;71.10
28763;DHT22;15918;51.270;6.522;2023-04-07T04:23:31;11.90;71.00
28763;DHT22;15918;51.270;6.522;2023-04-07T04:25:56;11.90;70.90
28763;DHT22;15918;51.270;6.522;2023-04-07T04:28:24;11.90;71.00
28763;DHT22;15918;51.270;6.522;2023-04-07T04:30:50;11.90;70.90
28763;DHT22;15918;51.270;6.522;2023-04-07T04:33:15;11.90;70.80
28763;DHT22;15918;51.270;6.522;2023-04-07T04:35:41;11.90;70.80
28763;DHT22;15918;51.270;6.522;2023-04-07T04:38:06;11.90;71.70
28763;DHT22;15918;51.270;6.522;2023-04-07T04:40:32;11.90;71.00
28763;DHT22;15918;51.270;6.522;2023-04-07T04:42:57;11.90;70.90
28763;DHT22;15918;51.270;6.522;2023-04-07T04:45:23;11.90;70.80
28763;DHT22;15918;51.270;6.522;2023-04-07T04:47:48;11.90;70.60
28763;DHT22;15918;51.270;6.522;2023-04-07T04:50:14;11.90;70.60
28763;DHT22;15918;51.270;6.522;2023-04-07T04:52:39;11.90;70.60
28763;DHT22;15918;51.270;6.522;2023-04-07T04:55:05;11.90;70.60
28763;DHT22;15918;51.270;6.522;2023-04-07T04:57:31;11.90;70.60
28763;DHT22;15918;51.270;6.522;2023-04-07T04:59:59;11.90;70.50
28763;DHT22;15918;51.270;6.522;2023-04-07T05:02:25;11.90;70.50
28763;DHT22;15918;51.270;6.522;2023-04-07T05:04:50;11.90;70.60
28763;DHT22;15918;51.270;6.522;2023-04-07T05:07:16;11.90;70.80
28763;DHT22;15918;51.270;6.522;2023-04-07T05:09:42;11.90;70.70
28763;DHT22;15918;51.270;6.522;2023-04-07T05:12:07;11.90;70.60
28763;DHT22;15918;51.270;6.522;2023-04-07T05:14:34;11.90;70.60
28763;DHT22;15918;51.270;6.522;2023-04-07T05:17:00;11.90;70.60
28763;DHT22;15918;51.270;6.522;2023-04-07T05:19:26;11.90;70.50
28763;DHT22;15918;51.270;6.522;2023-04-07T05:21:53;11.90;70.50
28763;DHT22;15918;51.270;6.522;2023-04-07T05:24:19;11.90;70.60
28763;DHT22;15918;51.270;6.522;2023-04-07T05:26:45;11.90;70.50
28763;DHT22;15918;51.270;6.522;2023-04-07T05:29:10;11.90;70.50
28763;DHT22;15918;51.270;6.522;2023-04-07T05:31:36;11.90;70.50
28763;DHT22;15918;51.270;6.522;2023-04-07T05:34:01;11.90;70.40
28763;DHT22;15918;51.270;6.522;2023-04-07T05:36:27;11.90;70.40
28763;DHT22;15918;51.270;6.522;2023-04-07T05:38:53;11.90;70.60
28763;DHT22;15918;51.270;6.522;2023-04-07T05:41:18;11.90;70.60
28763;DHT22;15918;51.270;6.522;2023-04-07T05:43:44;11.90;70.60
28763;DHT22;15918;51.270;6.522;2023-04-07T05:46:09;11.90;70.70
28763;DHT22;15918;51.270;6.522;2023-04-07T05:48:35;11.90;70.80
28763;DHT22;15918;51.270;6.522;2023-04-07T05:51:01;11.90;70.90
28763;DHT22;15918;51.270;6.522;2023-04-07T05:53:26;11.90;70.80
28763;DHT22;15918;51.270;6.522;2023-04-07T05:55:52;11.90;70.80
28763;DHT22;15918;51.270;6.522;2023-04-07T05:58:17;11.90;70.80
28763;DHT22;15918;51.270;6.522;2023-04-07T06:00:43;11.90;70.80
28763;DHT22;15918;51.270;6.522;2023-04-07T06:03:08;11.90;70.90
28763;DHT22;15918;51.270;6.522;2023-04-07T06:05:34;11.90;70.90
28763;DHT22;15918;51.270;6.522;2023-04-07T06:08:00;11.90;70.80
28763;DHT22;15918;51.270;6.522;2023-04-07T06:10:25;11.90;70.80
28763;DHT22;15918;51.270;6.522;2023-04-07T06:12:51;11.90;70.80
28763;DHT22;15918;51.270;6.522;2023-04-07T06:15:17;11.90;71.00
28763;DHT22;15918;51.270;6.522;2023-04-07T06:17:42;11.90;70.90
28763;DHT22;15918;51.270;6.522;2023-04-07T06:20:10;11.90;70.90
28763;DHT22;15918;51.270;6.522;2023-04-07T06:22:36;11.90;70.90
28763;DHT22;15918;51.270;6.522;2023-04-07T06:25:01;11.90;70.90
28763;DHT22;15918;51.270;6.522;2023-04-07T06:27:27;11.90;70.90
28763;DHT22;15918;51.270;6.522;2023-04-07T06:29:53;11.90;70.90
28763;DHT22;15918;51.270;6.522;2023-04-07T06:32:18;11.90;71.00
28763;DHT22;15918;51.270;6.522;2023-04-07T06:34:44;11.90;71.10
28763;DHT22;15918;51.270;6.522;2023-04-07T06:37:10;11.90;71.10
28763;DHT22;15918;51.270;6.522;2023-04-07T06:39:35;11.90;71.00
28763;DHT22;15918;51.270;6.522;2023-04-07T06:42:02;11.90;71.00
28763;DHT22;15918;51.270;6.522;2023-04-07T06:44:28;11.90;71.00
28763;DHT22;15918;51.270;6.522;2023-04-07T06:46:53;11.90;71.00
28763;DHT22;15918;51.270;6.522;2023-04-07T06:49:19;11.90;71.00
28763;DHT22;15918;51.270;6.522;2023-04-07T06:51:45;11.90;71.10
28763;DHT22;15918;51.270;6.522;2023-04-07T06:54:11;11.90;71.20
28763;DHT22;15918;51.270;6.522;2023-04-07T06:56:38;11.90;71.30
28763;DHT22;15918;51.270;6.522;2023-04-07T06:59:04;11.90;71.50
28763;DHT22;15918;51.270;6.522;2023-04-07T07:01:29;11.90;71.50
28763;DHT22;15918;51.270;6.522;2023-04-07T07:03:55;11.90;71.50
28763;DHT22;15918;51.270;6.522;2023-04-07T07:06:20;11.90;71.50
28763;DHT22;15918;51.270;6.522;2023-04-07T07:08:46;11.90;71.50
28763;DHT22;15918;51.270;6.522;2023-04-07T07:11:12;11.90;71.60
28763;DHT22;15918;51.270;6.522;2023-04-07T07:13:37;11.90;71.80
28763;DHT22;15918;51.270;6.522;2023-04-07T07:16:03;11.90;71.90
28763;DHT22;15918;51.270;6.522;2023-04-07T07:18:28;11.90;71.90
28763;DHT22;15918;51.270;6.522;2023-04-07T07:20:54;11.90;72.00
28763;DHT22;15918;51.270;6.522;2023-04-07T07:23:19;11.90;71.90
28763;DHT22;15918;51.270;6.522;2023-04-07T07:25:45;12.00;72.00
28763;DHT22;15918;51.270;6.522;2023-04-07T07:28:11;11.90;71.90
28763;DHT22;15918;51.270;6.522;2023-04-07T07:30:38;11.90;72.00
28763;DHT22;15918;51.270;6.522;2023-04-07T07:33:05;11.90;72.10
28763;DHT22;15918;51.270;6.522;2023-04-07T07:35:31;11.90;72.20
28763;DHT22;15918;51.270;6.522;2023-04-07T07:37:57;11.90;72.20
28763;DHT22;15918;51.270;6.522;2023-04-07T07:40:22;11.90;72.30
28763;DHT22;15918;51.270;6.522;2023-04-07T07:42:48;11.90;72.20
28763;DHT22;15918;51.270;6.522;2023-04-07T07:45:13;11.90;72.10
28763;DHT22;15918;51.270;6.522;2023-04-07T07:47:40;11.90;72.10
28763;DHT22;15918;51.270;6.522;2023-04-07T07:50:06;11.90;72.00
28763;DHT22;15918;51.270;6.522;2023-04-07T07:52:32;12.00;72.10
28763;DHT22;15918;51.270;6.522;2023-04-07T07:54:57;12.00;72.20
28763;DHT22;15918;51.270;6.522;2023-04-07T07:57:23;12.00;72.10
28763;DHT22;15918;51.270;6.522;2023-04-07T07:59:48;11.90;72.10
28763;DHT22;15918;51.270;6.522;2023-04-07T08:02:14;11.90;72.20
28763;DHT22;15918;51.270;6.522;2023-04-07T08:04:40;12.00;72.20
28763;DHT22;15918;51.270;6.522;2023-04-07T08:07:05;12.00;72.20
28763;DHT22;15918;51.270;6.522;2023-04-07T08:09:31;11.90;72.00
28763;DHT22;15918;51.270;6.522;2023-04-07T08:11:57;11.90;71.80
28763;DHT22;15918;51.270;6.522;2023-04-07T08:14:23;12.00;71.90
28763;DHT22;15918;51.270;6.522;2023-04-07T08:16:48;12.00;71.90
28763;DHT22;15918;51.270;6.522;2023-04-07T08:19:14;12.00;71.80
28763;DHT22;15918;51.270;6.522;2023-04-07T08:21:40;12.00;71.80
28763;DHT22;15918;51.270;6.522;2023-04-07T08:24:06;12.00;71.90
28763;DHT22;15918;51.270;6.522;2023-04-07T08:26:32;12.00;71.90
28763;DHT22;15918;51.270;6.522;2023-04-07T08:28:58;12.00;71.90
28763;DHT22;15918;51.270;6.522;2023-04-07T08:31:26;12.00;72.00
28763;DHT22;15918;51.270;6.522;2023-04-07T08:33:52;12.00;72.10
28763;DHT22;15918;51.270;6.522;2023-04-07T08:36:24;12.00;72.10
28763;DHT22;15918;51.270;6.522;2023-04-07T08:38:50;12.00;72.10
28763;DHT22;15918;51.270;6.522;2023-04-07T08:41:26;12.00;72.00
28763;DHT22;15918;51.270;6.522;2023-04-07T08:43:54;12.00;72.10
28763;DHT22;15918;51.270;6.522;2023-04-07T08:46:21;12.00;72.10
28763;DHT22;15918;51.270;6.522;2023-04-07T08:48:50;12.00;72.10
28763;DHT22;15918;51.270;6.522;2023-04-07T08:53:53;12.00;72.20
28763;DHT22;15918;51.270;6.522;2023-04-07T08:56:19;12.00;72.20
28763;DHT22;15918;51.270;6.522;2023-04-07T08:58:47;12.00;72.30
28763;DHT22;15918;51.270;6.522;2023-04-07T09:01:13;12.00;72.20
28763;DHT22;15918;51.270;6.522;2023-04-07T09:03:41;12.00;72.00
28763;DHT22;15918;51.270;6.522;2023-04-07T09:06:09;12.00;72.00
28763;DHT22;15918;51.270;6.522;2023-04-07T09:08:38;12.00;72.00
28763;DHT22;15918;51.270;6.522;2023-04-07T09:11:03;12.00;72.10
28763;DHT22;15918;51.270;6.522;2023-04-07T09:13:29;12.00;72.00
28763;DHT22;15918;51.270;6.522;2023-04-07T09:15:56;12.00;72.10
28763;DHT22;15918;51.270;6.522;2023-04-07T09:18:22;12.00;72.00
28763;DHT22;15918;51.270;6.522;2023-04-07T09:20:59;12.00;72.80
28763;DHT22;15918;51.270;6.522;2023-04-07T09:23:33;12.00;71.90
28763;DHT22;15918;51.270;6.522;2023-04-07T09:26:20;12.10;71.90
28763;DHT22;15918;51.270;6.522;2023-04-07T09:28:57;12.10;71.90
28763;DHT22;15918;51.270;6.522;2023-04-07T09:31:43;12.10;72.00
28763;DHT22;15918;51.270;6.522;2023-04-07T09:34:32;12.10;71.80
28763;DHT22;15918;51.270;6.522;2023-04-07T09:36:58;12.10;71.80
28763;DHT22;15918;51.270;6.522;2023-04-07T09:39:24;12.10;71.90
28763;DHT22;15918;51.270;6.522;2023-04-07T09:41:50;12.00;71.70
28763;DHT22;15918;51.270;6.522;2023-04-07T09:44:20;12.00;71.60
28763;DHT22;15918;51.270;6.522;2023-04-07T09:46:53;12.10;71.60
28763;DHT22;15918;51.270;6.522;2023-04-07T09:49:19;12.10;71.80
28763;DHT22;15918;51.270;6.522;2023-04-07T09:51:59;12.10;71.70
28763;DHT22;15918;51.270;6.522;2023-04-07T09:54:32;12.10;71.60
28763;DHT22;15918;51.270;6.522;2023-04-07T09:57:03;12.10;71.70
28763;DHT22;15918;51.270;6.522;2023-04-07T09:59:30;12.10;71.70
28763;DHT22;15918;51.270;6.522;2023-04-07T10:01:56;12.10;71.80
28763;DHT22;15918;51.270;6.522;2023-04-07T10:04:23;12.10;71.90
28763;DHT22;15918;51.270;6.522;2023-04-07T10:06:49;12.10;71.90
28763;DHT22;15918;51.270;6.522;2023-04-07T10:09:15;12.10;71.90
28763;DHT22;15918;51.270;6.522;2023-04-07T10:11:42;12.10;71.90
28763;DHT22;15918;51.270;6.522;2023-04-07T10:14:12;12.10;71.90
28763;DHT22;15918;51.270;6.522;2023-04-07T10:16:38;12.10;71.90
28763;DHT22;15918;51.270;6.522;2023-04-07T10:19:04;12.10;71.90
28763;DHT22;15918;51.270;6.522;2023-04-07T10:21:33;12.10;71.90
28763;DHT22;15918;51.270;6.522;2023-04-07T10:26:55;12.10;72.00
28763;DHT22;15918;51.270;6.522;2023-04-07T10:29:22;12.10;72.00
28763;DHT22;15918;51.270;6.522;2023-04-07T10:31:49;12.10;72.10
28763;DHT22;15918;51.270;6.522;2023-04-07T10:34:15;12.10;72.00
28763;DHT22;15918;51.270;6.522;2023-04-07T10:37:08;12.10;71.90
28763;DHT22;15918;51.270;6.522;2023-04-07T10:39:35;12.20;71.80
28763;DHT22;15918;51.270;6.522;2023-04-07T10:42:02;12.10;71.80
28763;DHT22;15918;51.270;6.522;2023-04-07T10:44:46;12.10;71.70
28763;DHT22;15918;51.270;6.522;2023-04-07T10:47:13;12.20;71.60
28763;DHT22;15918;51.270;6.522;2023-04-07T10:49:38;12.20;71.70
28763;DHT22;15918;51.270;6.522;2023-04-07T10:54:36;12.20;71.60
28763;DHT22;15918;51.270;6.522;2023-04-07T10:59:27;12.20;71.60
28763;DHT22;15918;51.270;6.522;2023-04-07T11:04:41;12.20;71.40
28763;DHT22;15918;51.270;6.522;2023-04-07T11:07:08;12.20;71.50
28763;DHT22;15918;51.270;6.522;2023-04-07T11:09:34;12.20;71.40
28763;DHT22;15918;51.270;6.522;2023-04-07T11:11:59;12.20;71.40
28763;DHT22;15918;51.270;6.522;2023-04-07T11:14:29;12.30;71.40
28763;DHT22;15918;51.270;6.522;2023-04-07T11:16:56;12.20;71.30
28763;DHT22;15918;51.270;6.522;2023-04-07T11:19:22;12.20;71.30
28763;DHT22;15918;51.270;6.522;2023-04-07T11:21:48;12.30;71.30
28763;DHT22;15918;51.270;6.522;2023-04-07T11:24:33;12.30;71.20
28763;DHT22;15918;51.270;6.522;2023-04-07T11:27:00;12.30;71.10
28763;DHT22;15918;51.270;6.522;2023-04-07T11:29:32;12.30;71.20
28763;DHT22;15918;51.270;6.522;2023-04-07T11:31:59;12.30;71.20
28763;DHT22;15918;51.270;6.522;2023-04-07T11:34:33;12.30;71.30
28763;DHT22;15918;51.270;6.522;2023-04-07T11:37:22;12.30;71.30
28763;DHT22;15918;51.270;6.522;2023-04-07T11:39:55;12.30;71.20
28763;DHT22;15918;51.270;6.522;2023-04-07T11:42:34;12.30;71.30
28763;DHT22;15918;51.270;6.522;2023-04-07T11:45:00;12.30;71.20
28763;DHT22;15918;51.270;6.522;2023-04-07T11:47:36;12.30;71.10
28763;DHT22;15918;51.270;6.522;2023-04-07T11:50:02;12.40;71.10
28763;DHT22;15918;51.270;6.522;2023-04-07T11:52:27;12.30;71.00
28763;DHT22;15918;51.270;6.522;2023-04-07T11:54:53;12.30;70.90
28763;DHT22;15918;51.270;6.522;2023-04-07T11:57:27;12.40;71.00
28763;DHT22;15918;51.270;6.522;2023-04-07T12:00:10;12.40;70.80
28763;DHT22;15918;51.270;6.522;2023-04-07T12:02:36;12.40;70.70
28763;DHT22;15918;51.270;6.522;2023-04-07T12:05:03;12.40;70.80
28763;DHT22;15918;51.270;6.522;2023-04-07T12:07:28;12.40;71.60
28763;DHT22;15918;51.270;6.522;2023-04-07T12:09:54;12.40;70.80
28763;DHT22;15918;51.270;6.522;2023-04-07T12:12:27;12.40;70.80
28763;DHT22;15918;51.270;6.522;2023-04-07T12:14:53;12.40;70.80
28763;DHT22;15918;51.270;6.522;2023-04-07T12:17:23;12.40;71.00
28763;DHT22;15918;51.270;6.522;2023-04-07T12:19:49;12.40;70.70
28763;DHT22;15918;51.270;6.522;2023-04-07T12:22:15;12.40;70.60
28763;DHT22;15918;51.270;6.522;2023-04-07T12:24:41;12.50;70.70
28763;DHT22;15918;51.270;6.522;2023-04-07T12:27:06;12.50;70.70
28763;DHT22;15918;51.270;6.522;2023-04-07T12:29:33;12.50;70.60
28763;DHT22;15918;51.270;6.522;2023-04-07T12:31:58;12.50;70.60
28763;DHT22;15918;51.270;6.522;2023-04-07T12:34:25;12.50;70.50
28763;DHT22;15918;51.270;6.522;2023-04-07T12:36:51;12.50;70.50
28763;DHT22;15918;51.270;6.522;2023-04-07T12:39:17;12.50;70.50
28763;DHT22;15918;51.270;6.522;2023-04-07T12:41:43;12.50;70.40
28763;DHT22;15918;51.270;6.522;2023-04-07T12:44:10;12.50;70.40
28763;DHT22;15918;51.270;6.522;2023-04-07T12:46:35;12.50;70.30
28763;DHT22;15918;51.270;6.522;2023-04-07T12:49:01;12.50;70.30
28763;DHT22;15918;51.270;6.522;2023-04-07T12:51:27;12.60;70.30
28763;DHT22;15918;51.270;6.522;2023-04-07T12:53:53;12.50;70.30
28763;DHT22;15918;51.270;6.522;2023-04-07T12:56:19;12.50;70.20
28763;DHT22;15918;51.270;6.522;2023-04-07T12:58:47;12.50;70.20
28763;DHT22;15918;51.270;6.522;2023-04-07T13:01:12;12.50;70.10
28763;DHT22;15918;51.270;6.522;2023-04-07T13:03:39;12.50;70.10
28763;DHT22;15918;51.270;6.522;2023-04-07T13:06:05;12.50;70.20
28763;DHT22;15918;51.270;6.522;2023-04-07T13:08:30;12.60;70.20
28763;DHT22;15918;51.270;6.522;2023-04-07T13:10:56;12.60;70.20
28763;DHT22;15918;51.270;6.522;2023-04-07T13:13:22;12.60;70.20
28763;DHT22;15918;51.270;6.522;2023-04-07T13:15:48;12.60;70.20
28763;DHT22;15918;51.270;6.522;2023-04-07T13:18:13;12.60;70.20
28763;DHT22;15918;51.270;6.522;2023-04-07T13:20:39;12.60;70.20
28763;DHT22;15918;51.270;6.522;2023-04-07T13:23:05;12.60;70.10
28763;DHT22;15918;51.270;6.522;2023-04-07T13:25:31;12.60;70.10
28763;DHT22;15918;51.270;6.522;2023-04-07T13:27:56;12.60;70.10
28763;DHT22;15918;51.270;6.522;2023-04-07T13:30:22;12.60;70.00
28763;DHT22;15918;51.270;6.522;2023-04-07T13:32:47;12.60;70.00
28763;DHT22;15918;51.270;6.522;2023-04-07T13:35:18;12.60;70.00
28763;DHT22;15918;51.270;6.522;2023-04-07T13:37:43;12.60;70.00
28763;DHT22;15918;51.270;6.522;2023-04-07T13:40:10;12.60;70.00
28763;DHT22;15918;51.270;6.522;2023-04-07T13:42:37;12.70;70.00
28763;DHT22;15918;51.270;6.522;2023-04-07T13:45:03;12.70;70.00
28763;DHT22;15918;51.270;6.522;2023-04-07T13:47:29;12.70;70.10
28763;DHT22;15918;51.270;6.522;2023-04-07T13:50:01;12.70;70.10
28763;DHT22;15918;51.270;6.522;2023-04-07T13:52:27;12.70;70.20
28763;DHT22;15918;51.270;6.522;2023-04-07T13:54:53;12.70;70.20
28763;DHT22;15918;51.270;6.522;2023-04-07T13:57:19;12.70;70.20
28763;DHT22;15918;51.270;6.522;2023-04-07T13:59:48;12.70;70.10
28763;DHT22;15918;51.270;6.522;2023-04-07T14:02:16;12.70;70.20
28763;DHT22;15918;51.270;6.522;2023-04-07T14:04:42;12.70;70.20
28763;DHT22;15918;51.270;6.522;2023-04-07T14:07:08;12.70;70.30
28763;DHT22;15918;51.270;6.522;2023-04-07T14:09:34;12.70;70.20
28763;DHT22;15918;51.270;6.522;2023-04-07T14:12:00;12.70;70.30
28763;DHT22;15918;51.270;6.522;2023-04-07T14:14:25;12.70;70.40
28763;DHT22;15918;51.270;6.522;2023-04-07T14:16:51;12.70;70.40
28763;DHT22;15918;51.270;6.522;2023-04-07T14:19:20;12.70;70.30
28763;DHT22;15918;51.270;6.522;2023-04-07T14:21:51;12.70;70.30
28763;DHT22;15918;51.270;6.522;2023-04-07T14:24:17;12.70;70.40
28763;DHT22;15918;51.270;6.522;2023-04-07T14:26:44;12.70;70.30
28763;DHT22;15918;51.270;6.522;2023-04-07T14:29:11;12.70;70.40
28763;DHT22;15918;51.270;6.522;2023-04-07T14:31:36;12.80;70.40
28763;DHT22;15918;51.270;6.522;2023-04-07T14:34:02;12.80;70.40
28763;DHT22;15918;51.270;6.522;2023-04-07T14:36:29;12.80;70.40
28763;DHT22;15918;51.270;6.522;2023-04-07T14:38:54;12.80;70.30
28763;DHT22;15918;51.270;6.522;2023-04-07T14:41:21;12.80;70.40
28763;DHT22;15918;51.270;6.522;2023-04-07T14:43:47;12.80;70.50
28763;DHT22;15918;51.270;6.522;2023-04-07T14:46:16;12.80;70.40
28763;DHT22;15918;51.270;6.522;2023-04-07T14:48:43;12.80;70.40
28763;DHT22;15918;51.270;6.522;2023-04-07T14:51:11;12.80;70.30
28763;DHT22;15918;51.270;6.522;2023-04-07T14:53:40;12.80;70.30
28763;DHT22;15918;51.270;6.522;2023-04-07T14:56:06;12.80;70.30
28763;DHT22;15918;51.270;6.522;2023-04-07T14:58:32;12.80;70.30
28763;DHT22;15918;51.270;6.522;2023-04-07T15:00:58;12.80;70.40
28763;DHT22;15918;51.270;6.522;2023-04-07T15:03:23;12.80;70.30
28763;DHT22;15918;51.270;6.522;2023-04-07T15:05:49;12.80;71.30
28763;DHT22;15918;51.270;6.522;2023-04-07T15:08:15;12.80;70.40
28763;DHT22;15918;51.270;6.522;2023-04-07T15:10:40;12.80;70.30
28763;DHT22;15918;51.270;6.522;2023-04-07T15:13:06;12.80;70.30
28763;DHT22;15918;51.270;6.522;2023-04-07T15:15:31;12.80;70.30
28763;DHT22;15918;51.270;6.522;2023-04-07T15:17:57;12.90;70.40
28763;DHT22;15918;51.270;6.522;2023-04-07T15:20:22;12.80;70.30
28763;DHT22;15918;51.270;6.522;2023-04-07T15:22:48;12.80;70.30
28763;DHT22;15918;51.270;6.522;2023-04-07T15:25:14;12.90;70.40
28763;DHT22;15918;51.270;6.522;2023-04-07T15:27:39;12.90;70.40
28763;DHT22;15918;51.270;6.522;2023-04-07T15:30:05;12.90;70.30
28763;DHT22;15918;51.270;6.522;2023-04-07T15:32:31;12.90;70.30
28763;DHT22;15918;51.270;6.522;2023-04-07T15:34:56;12.90;70.20
28763;DHT22;15918;51.270;6.522;2023-04-07T15:37:23;12.90;70.20
28763;DHT22;15918;51.270;6.522;2023-04-07T15:39:49;12.90;70.20
28763;DHT22;15918;51.270;6.522;2023-04-07T15:42:15;12.90;70.20
28763;DHT22;15918;51.270;6.522;2023-04-07T15:44:41;12.90;70.10
28763;DHT22;15918;51.270;6.522;2023-04-07T15:47:07;12.90;70.10
28763;DHT22;15918;51.270;6.522;2023-04-07T15:49:34;12.90;70.10